createdAt,value
2019-03-03T00:00:56.282Z,1006.97
2019-03-03T00:01:56.050Z,1006.96
2019-03-03T00:02:56.050Z,1006.96
2019-03-03T00:03:56.037Z,1006.98
2019-03-03T00:04:56.040Z,1006.99
2019-03-03T00:05:56.044Z,1006.98
2019-03-03T00:06:56.034Z,1006.99
2019-03-03T00:07:56.015Z,1007.00
2019-03-03T00:08:56.013Z,1006.98
2019-03-03T00:09:56.019Z,1006.98
2019-03-03T00:10:56.027Z,1007.00
2019-03-03T00:11:55.996Z,1007.00
2019-03-03T00:12:55.996Z,1006.97
2019-03-03T00:13:56.191Z,1007.01
2019-03-03T00:14:55.982Z,1006.96
2019-03-03T00:15:55.980Z,1006.97
2019-03-03T00:16:55.999Z,1006.98
2019-03-03T00:17:56.187Z,1006.97
2019-03-03T00:18:55.999Z,1006.93
2019-03-03T00:19:56.162Z,1006.92
2019-03-03T00:20:56.153Z,1006.92
2019-03-03T00:21:55.947Z,1006.91
2019-03-03T00:22:55.963Z,1006.91
2019-03-03T00:23:55.949Z,1006.92
2019-03-03T00:24:55.949Z,1006.96
2019-03-03T00:25:55.942Z,1006.89
2019-03-03T00:26:56.126Z,1006.89
2019-03-03T00:27:55.921Z,1006.84
2019-03-03T00:28:55.930Z,1006.84
2019-03-03T00:29:55.915Z,1006.79
2019-03-03T00:30:55.907Z,1006.78
2019-03-03T00:31:55.910Z,1006.79
2019-03-03T00:32:56.098Z,1006.80
2019-03-03T00:33:55.907Z,1006.77
2019-03-03T00:34:55.886Z,1006.74
2019-03-03T00:35:55.877Z,1006.68
2019-03-03T00:36:55.883Z,1006.78
2019-03-03T00:37:55.884Z,1006.71
2019-03-03T00:38:55.877Z,1006.73
2019-03-03T00:39:56.059Z,1006.70
2019-03-03T00:40:56.069Z,1006.74
2019-03-03T00:41:56.072Z,1006.74
2019-03-03T00:42:55.855Z,1006.72
2019-03-03T00:43:56.047Z,1006.72
2019-03-03T00:44:56.057Z,1006.70
2019-03-03T00:45:55.834Z,1006.69
2019-03-03T00:46:55.823Z,1006.64
2019-03-03T00:47:55.827Z,1006.63
2019-03-03T00:48:55.812Z,1006.64
2019-03-03T00:49:56.014Z,1006.63
2019-03-03T00:50:55.824Z,1006.64
2019-03-03T00:51:55.801Z,1006.63
2019-03-03T00:52:55.796Z,1006.64
2019-03-03T00:53:55.786Z,1006.58
2019-03-03T00:54:55.799Z,1006.62
2019-03-03T00:55:55.788Z,1006.65
2019-03-03T00:56:55.974Z,1006.62
2019-03-03T00:57:55.798Z,1006.61
2019-03-03T00:58:55.765Z,1006.60
2019-03-03T00:59:55.957Z,1006.59
2019-03-03T01:00:55.759Z,1006.58
2019-03-03T01:01:55.772Z,1006.62
2019-03-03T01:02:55.746Z,1006.60
2019-03-03T01:03:55.941Z,1006.59
2019-03-03T01:04:55.729Z,1006.60
2019-03-03T01:05:55.947Z,1006.66
2019-03-03T01:06:55.727Z,1006.61
2019-03-03T01:07:55.720Z,1006.60
2019-03-03T01:08:55.744Z,1006.61
2019-03-03T01:09:55.707Z,1006.56
2019-03-03T01:10:55.702Z,1006.54
2019-03-03T01:11:55.700Z,1006.56
2019-03-03T01:12:55.696Z,1006.52
2019-03-03T01:13:55.779Z,1006.56
2019-03-03T01:14:55.918Z,1006.54
2019-03-03T01:15:55.681Z,1006.59
2019-03-03T01:16:55.873Z,1006.54
2019-03-03T01:17:55.679Z,1006.49
2019-03-03T01:18:55.875Z,1006.44
2019-03-03T01:19:55.672Z,1006.36
2019-03-03T01:20:55.666Z,1006.44
2019-03-03T01:21:55.867Z,1006.41
2019-03-03T01:22:55.648Z,1006.40
2019-03-03T01:23:55.647Z,1006.37
2019-03-03T01:24:55.635Z,1006.43
2019-03-03T01:25:55.634Z,1006.43
2019-03-03T01:26:55.621Z,1006.41
2019-03-03T01:27:55.630Z,1006.38
2019-03-03T01:28:55.642Z,1006.40
2019-03-03T01:29:55.623Z,1006.41
2019-03-03T01:30:55.615Z,1006.41
2019-03-03T01:31:55.608Z,1006.41
2019-03-03T01:32:55.616Z,1006.43
2019-03-03T01:33:55.820Z,1006.41
2019-03-03T01:34:55.584Z,1006.42
2019-03-03T01:35:55.594Z,1006.39
2019-03-03T01:36:55.780Z,1006.43
2019-03-03T01:37:55.777Z,1006.40
2019-03-03T01:38:55.566Z,1006.40
2019-03-03T01:39:55.581Z,1006.39
2019-03-03T01:40:55.555Z,1006.39
2019-03-03T01:41:55.579Z,1006.38
2019-03-03T01:42:55.545Z,1006.36
2019-03-03T01:43:55.553Z,1006.40
2019-03-03T01:44:55.538Z,1006.40
2019-03-03T01:45:55.540Z,1006.32
2019-03-03T01:46:55.537Z,1006.38
2019-03-03T01:47:55.521Z,1006.37
2019-03-03T01:48:55.518Z,1006.34
2019-03-03T01:49:55.512Z,1006.34
2019-03-03T01:50:55.510Z,1006.33
2019-03-03T01:51:55.704Z,1006.33
2019-03-03T01:52:55.712Z,1006.31
2019-03-03T01:53:55.698Z,1006.23
2019-03-03T01:54:55.496Z,1006.24
2019-03-03T01:55:55.478Z,1006.25
2019-03-03T01:56:55.474Z,1006.21
2019-03-03T01:57:55.687Z,1006.19
2019-03-03T01:58:55.481Z,1006.23
2019-03-03T01:59:55.460Z,1006.19
2019-03-03T02:00:55.460Z,1006.16
2019-03-03T02:01:55.451Z,1006.16
2019-03-03T02:02:55.650Z,1006.18
2019-03-03T02:03:55.452Z,1006.11
2019-03-03T02:04:55.434Z,1006.07
2019-03-03T02:05:55.430Z,1006.07
2019-03-03T02:06:55.434Z,1006.07
2019-03-03T02:07:55.422Z,1006.04
2019-03-03T02:08:55.419Z,1006.03
2019-03-03T02:09:55.437Z,1006.00
2019-03-03T02:10:55.431Z,1005.97
2019-03-03T02:11:55.403Z,1005.94
2019-03-03T02:12:55.396Z,1005.93
2019-03-03T02:13:55.621Z,1005.87
2019-03-03T02:14:55.394Z,1005.78
2019-03-03T02:15:55.404Z,1005.80
2019-03-03T02:16:55.403Z,1005.85
2019-03-03T02:17:55.589Z,1005.83
2019-03-03T02:18:55.377Z,1005.82
2019-03-03T02:19:55.584Z,1005.80
2019-03-03T02:20:55.379Z,1005.75
2019-03-03T02:21:55.582Z,1005.72
2019-03-03T02:22:55.353Z,1005.71
2019-03-03T02:23:55.365Z,1005.64
2019-03-03T02:24:55.349Z,1005.62
2019-03-03T02:25:55.543Z,1005.60
2019-03-03T02:26:55.541Z,1005.59
2019-03-03T02:27:55.522Z,1005.52
2019-03-03T02:28:55.338Z,1005.49
2019-03-03T02:29:55.310Z,1005.48
2019-03-03T02:30:55.310Z,1005.46
2019-03-03T02:31:55.304Z,1005.47
2019-03-03T02:32:55.297Z,1005.42
2019-03-03T02:33:55.533Z,1005.37
2019-03-03T02:34:55.302Z,1005.44
2019-03-03T02:35:55.303Z,1005.41
2019-03-03T02:36:55.283Z,1005.36
2019-03-03T02:37:55.295Z,1005.37
2019-03-03T02:38:55.279Z,1005.29
2019-03-03T02:39:55.272Z,1005.27
2019-03-03T02:40:55.469Z,1005.29
2019-03-03T02:41:55.260Z,1005.28
2019-03-03T02:42:55.248Z,1005.33
2019-03-03T02:43:55.252Z,1005.33
2019-03-03T02:44:55.453Z,1005.37
2019-03-03T02:45:55.245Z,1005.38
2019-03-03T02:46:55.257Z,1005.35
2019-03-03T02:47:55.446Z,1005.35
2019-03-03T02:48:55.228Z,1005.38
2019-03-03T02:49:55.224Z,1005.43
2019-03-03T02:50:55.412Z,1005.38
2019-03-03T02:51:55.202Z,1005.35
2019-03-03T02:52:55.210Z,1005.26
2019-03-03T02:53:55.195Z,1005.25
2019-03-03T02:54:55.190Z,1005.23
2019-03-03T02:55:55.207Z,1005.24
2019-03-03T02:56:55.398Z,1005.24
2019-03-03T02:57:55.192Z,1005.25
2019-03-03T02:58:55.648Z,1005.30
2019-03-03T02:59:55.380Z,1005.25
2019-03-03T03:00:55.174Z,1005.28
2019-03-03T03:01:55.174Z,1005.23
2019-03-03T03:02:55.367Z,1005.26
2019-03-03T03:03:55.152Z,1005.22
2019-03-03T03:04:55.136Z,1005.19
2019-03-03T03:05:55.137Z,1005.12
2019-03-03T03:06:55.145Z,1005.11
2019-03-03T03:07:55.328Z,1005.04
2019-03-03T03:08:55.353Z,1005.05
2019-03-03T03:09:55.317Z,1005.03
2019-03-03T03:10:55.309Z,1005.02
2019-03-03T03:11:55.100Z,1005.03
2019-03-03T03:12:55.108Z,1005.03
2019-03-03T03:13:55.090Z,1005.01
2019-03-03T03:14:55.090Z,1005.03
2019-03-03T03:15:55.083Z,1005.04
2019-03-03T03:16:55.075Z,1005.06
2019-03-03T03:17:55.074Z,1005.02
2019-03-03T03:18:55.086Z,1005.02
2019-03-03T03:19:55.276Z,1004.99
2019-03-03T03:20:55.072Z,1004.96
2019-03-03T03:21:55.266Z,1004.98
2019-03-03T03:22:55.076Z,1004.94
2019-03-03T03:23:55.051Z,1004.91
2019-03-03T03:24:55.253Z,1004.92
2019-03-03T03:25:55.044Z,1004.86
2019-03-03T03:26:55.025Z,1004.89
2019-03-03T03:27:55.021Z,1004.91
2019-03-03T03:28:55.020Z,1004.87
2019-03-03T03:29:55.229Z,1004.83
2019-03-03T03:30:55.223Z,1004.88
2019-03-03T03:31:55.055Z,1004.89
2019-03-03T03:32:55.008Z,1004.85
2019-03-03T03:33:54.995Z,1004.87
2019-03-03T03:34:54.995Z,1004.83
2019-03-03T03:35:55.198Z,1004.85
2019-03-03T03:36:55.024Z,1004.88
2019-03-03T03:37:55.193Z,1004.90
2019-03-03T03:38:54.977Z,1004.89
2019-03-03T03:39:54.961Z,1004.88
2019-03-03T03:40:54.970Z,1004.90
2019-03-03T03:41:54.952Z,1004.87
2019-03-03T03:42:54.953Z,1004.88
2019-03-03T03:43:54.956Z,1004.83
2019-03-03T03:44:54.937Z,1004.79
2019-03-03T03:45:54.930Z,1004.72
2019-03-03T03:46:54.923Z,1004.74
2019-03-03T03:47:54.923Z,1004.73
2019-03-03T03:48:54.941Z,1004.70
2019-03-03T03:49:54.924Z,1004.70
2019-03-03T03:50:55.114Z,1004.73
2019-03-03T03:51:55.281Z,1004.72
2019-03-03T03:52:54.898Z,1004.70
2019-03-03T03:53:54.902Z,1004.69
2019-03-03T03:54:55.091Z,1004.69
2019-03-03T03:55:54.888Z,1004.67
2019-03-03T03:56:54.904Z,1004.66
2019-03-03T03:57:54.884Z,1004.64
2019-03-03T03:58:54.873Z,1004.67
2019-03-03T03:59:55.131Z,1004.64
2019-03-03T04:00:54.870Z,1004.59
2019-03-03T04:01:54.863Z,1004.58
2019-03-03T04:02:55.066Z,1004.57
2019-03-03T04:03:54.841Z,1004.58
2019-03-03T04:04:54.858Z,1004.55
2019-03-03T04:05:54.849Z,1004.55
2019-03-03T04:06:54.825Z,1004.53
2019-03-03T04:07:54.824Z,1004.55
2019-03-03T04:08:54.829Z,1004.58
2019-03-03T04:09:54.809Z,1004.57
2019-03-03T04:10:54.808Z,1004.55
2019-03-03T04:11:54.799Z,1004.59
2019-03-03T04:12:54.819Z,1004.59
2019-03-03T04:13:54.797Z,1004.59
2019-03-03T04:14:54.788Z,1004.64
2019-03-03T04:15:54.783Z,1004.61
2019-03-03T04:16:55.005Z,1004.57
2019-03-03T04:17:54.772Z,1004.58
2019-03-03T04:18:54.772Z,1004.57
2019-03-03T04:19:54.771Z,1004.56
2019-03-03T04:20:54.771Z,1004.56
2019-03-03T04:21:54.774Z,1004.54
2019-03-03T04:22:54.745Z,1004.52
2019-03-03T04:23:54.738Z,1004.57
2019-03-03T04:24:54.731Z,1004.55
2019-03-03T04:25:54.733Z,1004.55
2019-03-03T04:26:54.727Z,1004.56
2019-03-03T04:27:54.724Z,1004.55
2019-03-03T04:28:54.713Z,1004.55
2019-03-03T04:29:54.710Z,1004.52
2019-03-03T04:30:54.716Z,1004.45
2019-03-03T04:31:54.697Z,1004.50
2019-03-03T04:32:54.701Z,1004.44
2019-03-03T04:33:54.692Z,1004.42
2019-03-03T04:34:54.689Z,1004.44
2019-03-03T04:35:54.699Z,1004.43
2019-03-03T04:36:54.893Z,1004.37
2019-03-03T04:37:54.893Z,1004.39
2019-03-03T04:38:54.661Z,1004.43
2019-03-03T04:39:54.690Z,1004.37
2019-03-03T04:40:54.651Z,1004.38
2019-03-03T04:41:54.652Z,1004.35
2019-03-03T04:42:54.654Z,1004.35
2019-03-03T04:43:54.869Z,1004.30
2019-03-03T04:44:54.636Z,1004.28
2019-03-03T04:45:54.641Z,1004.31
2019-03-03T04:46:54.623Z,1004.31
2019-03-03T04:47:54.832Z,1004.33
2019-03-03T04:48:54.612Z,1004.33
2019-03-03T04:49:54.615Z,1004.34
2019-03-03T04:50:54.604Z,1004.31
2019-03-03T04:51:54.622Z,1004.31
2019-03-03T04:52:54.597Z,1004.31
2019-03-03T04:53:54.788Z,1004.32
2019-03-03T04:54:54.583Z,1004.25
2019-03-03T04:55:54.798Z,1004.24
2019-03-03T04:56:54.576Z,1004.26
2019-03-03T04:57:54.770Z,1004.21
2019-03-03T04:58:54.781Z,1004.16
2019-03-03T04:59:54.558Z,1004.14
2019-03-03T05:00:54.561Z,1004.13
2019-03-03T05:01:54.552Z,1004.11
2019-03-03T05:02:54.538Z,1004.09
2019-03-03T05:03:54.532Z,1004.07
2019-03-03T05:04:54.535Z,1004.02
2019-03-03T05:05:54.527Z,1004.07
2019-03-03T05:06:54.534Z,1004.02
2019-03-03T05:07:54.539Z,1004.04
2019-03-03T05:08:54.509Z,1004.03
2019-03-03T05:09:54.512Z,1004.02
2019-03-03T05:10:54.716Z,1004.02
2019-03-03T05:11:54.512Z,1004.02
2019-03-03T05:12:54.702Z,1004.00
2019-03-03T05:13:54.518Z,1003.99
2019-03-03T05:14:54.697Z,1004.02
2019-03-03T05:15:54.495Z,1004.00
2019-03-03T05:16:54.475Z,1003.99
2019-03-03T05:17:54.467Z,1004.02
2019-03-03T05:18:54.485Z,1004.04
2019-03-03T05:19:54.661Z,1003.98
2019-03-03T05:20:54.479Z,1003.99
2019-03-03T05:21:54.447Z,1003.94
2019-03-03T05:22:54.455Z,1003.96
2019-03-03T05:23:54.432Z,1003.98
2019-03-03T05:24:54.438Z,1003.95
2019-03-03T05:25:54.427Z,1003.94
2019-03-03T05:26:54.629Z,1003.93
2019-03-03T05:27:54.624Z,1003.96
2019-03-03T05:28:54.640Z,1003.98
2019-03-03T05:29:54.409Z,1004.02
2019-03-03T05:30:54.420Z,1003.97
2019-03-03T05:31:54.406Z,1004.00
2019-03-03T05:32:54.604Z,1004.02
2019-03-03T05:33:54.384Z,1003.97
2019-03-03T05:34:54.385Z,1004.02
2019-03-03T05:35:54.385Z,1003.98
2019-03-03T05:36:54.377Z,1003.98
2019-03-03T05:37:54.574Z,1003.94
2019-03-03T05:38:54.580Z,1003.94
2019-03-03T05:39:54.357Z,1003.94
2019-03-03T05:40:54.355Z,1003.88
2019-03-03T05:41:54.358Z,1003.87
2019-03-03T05:42:54.357Z,1003.85
2019-03-03T05:43:54.538Z,1003.86
2019-03-03T05:44:54.329Z,1003.84
2019-03-03T05:45:54.337Z,1003.83
2019-03-03T05:46:54.338Z,1003.81
2019-03-03T05:47:54.337Z,1003.82
2019-03-03T05:48:54.316Z,1003.86
2019-03-03T05:49:54.312Z,1003.83
2019-03-03T05:50:54.508Z,1003.82
2019-03-03T05:51:54.301Z,1003.80
2019-03-03T05:52:54.292Z,1003.76
2019-03-03T05:53:54.286Z,1003.72
2019-03-03T05:54:54.312Z,1003.74
2019-03-03T05:55:54.291Z,1003.72
2019-03-03T05:56:54.287Z,1003.74
2019-03-03T05:57:54.265Z,1003.74
2019-03-03T05:58:54.466Z,1003.70
2019-03-03T05:59:54.263Z,1003.73
2019-03-03T06:00:54.272Z,1003.73
2019-03-03T06:01:54.456Z,1003.72
2019-03-03T06:02:54.257Z,1003.70
2019-03-03T06:03:54.244Z,1003.72
2019-03-03T06:04:54.245Z,1003.74
2019-03-03T06:05:54.257Z,1003.75
2019-03-03T06:06:54.233Z,1003.69
2019-03-03T06:07:54.232Z,1003.74
2019-03-03T06:08:54.216Z,1003.70
2019-03-03T06:09:54.418Z,1003.68
2019-03-03T06:10:54.199Z,1003.69
2019-03-03T06:11:54.200Z,1003.67
2019-03-03T06:12:54.190Z,1003.58
2019-03-03T06:13:54.199Z,1003.64
2019-03-03T06:14:54.196Z,1003.64
2019-03-03T06:15:54.198Z,1003.65
2019-03-03T06:16:54.195Z,1003.68
2019-03-03T06:17:54.189Z,1003.67
2019-03-03T06:18:54.179Z,1003.62
2019-03-03T06:19:54.366Z,1003.65
2019-03-03T06:20:54.353Z,1003.60
2019-03-03T06:21:54.351Z,1003.60
2019-03-03T06:22:54.141Z,1003.64
2019-03-03T06:23:54.349Z,1003.65
2019-03-03T06:24:54.140Z,1003.57
2019-03-03T06:25:54.135Z,1003.63
2019-03-03T06:26:54.155Z,1003.61
2019-03-03T06:27:54.127Z,1003.60
2019-03-03T06:28:54.125Z,1003.64
2019-03-03T06:29:54.110Z,1003.65
2019-03-03T06:30:54.315Z,1003.64
2019-03-03T06:31:54.150Z,1003.66
2019-03-03T06:32:54.097Z,1003.64
2019-03-03T06:33:54.100Z,1003.63
2019-03-03T06:34:54.082Z,1003.69
2019-03-03T06:35:54.294Z,1003.62
2019-03-03T06:36:54.093Z,1003.58
2019-03-03T06:37:54.278Z,1003.60
2019-03-03T06:38:54.078Z,1003.64
2019-03-03T06:39:54.294Z,1003.65
2019-03-03T06:40:54.056Z,1003.63
2019-03-03T06:41:54.084Z,1003.66
2019-03-03T06:42:54.057Z,1003.71
2019-03-03T06:43:54.059Z,1003.75
2019-03-03T06:44:54.268Z,1003.71
2019-03-03T06:45:54.034Z,1003.72
2019-03-03T06:46:54.038Z,1003.69
2019-03-03T06:47:54.021Z,1003.71
2019-03-03T06:48:54.241Z,1003.67
2019-03-03T06:49:54.212Z,1003.63
2019-03-03T06:50:54.016Z,1003.63
2019-03-03T06:51:54.004Z,1003.65
2019-03-03T06:52:53.995Z,1003.64
2019-03-03T06:53:53.991Z,1003.68
2019-03-03T06:54:54.002Z,1003.61
2019-03-03T06:55:54.007Z,1003.62
2019-03-03T06:56:53.995Z,1003.70
2019-03-03T06:57:54.001Z,1003.62
2019-03-03T06:58:53.973Z,1003.67
2019-03-03T06:59:54.168Z,1003.63
2019-03-03T07:00:53.956Z,1003.60
2019-03-03T07:01:53.966Z,1003.65
2019-03-03T07:02:53.950Z,1003.63
2019-03-03T07:03:53.953Z,1003.64
2019-03-03T07:04:53.955Z,1003.61
2019-03-03T07:05:53.954Z,1003.53
2019-03-03T07:06:53.945Z,1003.60
2019-03-03T07:07:53.941Z,1003.58
2019-03-03T07:08:53.919Z,1003.64
2019-03-03T07:09:53.920Z,1003.56
2019-03-03T07:10:53.911Z,1003.55
2019-03-03T07:11:53.906Z,1003.55
2019-03-03T07:12:53.910Z,1003.53
2019-03-03T07:13:53.897Z,1003.58
2019-03-03T07:14:54.113Z,1003.61
2019-03-03T07:15:53.892Z,1003.65
2019-03-03T07:16:53.891Z,1003.65
2019-03-03T07:17:53.880Z,1003.63
2019-03-03T07:18:54.090Z,1003.63
2019-03-03T07:19:53.882Z,1003.59
2019-03-03T07:20:54.082Z,1003.65
2019-03-03T07:21:53.861Z,1003.62
2019-03-03T07:22:53.848Z,1003.55
2019-03-03T07:23:54.055Z,1003.58
2019-03-03T07:24:53.840Z,1003.54
2019-03-03T07:25:53.845Z,1003.52
2019-03-03T07:26:53.877Z,1003.54
2019-03-03T07:27:53.833Z,1003.52
2019-03-03T07:28:53.825Z,1003.56
2019-03-03T07:29:53.821Z,1003.54
2019-03-03T07:30:53.813Z,1003.63
2019-03-03T07:31:53.814Z,1003.61
2019-03-03T07:32:54.005Z,1003.54
2019-03-03T07:33:53.812Z,1003.56
2019-03-03T07:34:53.806Z,1003.60
2019-03-03T07:35:53.795Z,1003.57
2019-03-03T07:36:53.780Z,1003.58
2019-03-03T07:37:53.997Z,1003.59
2019-03-03T07:38:53.788Z,1003.65
2019-03-03T07:39:53.971Z,1003.62
2019-03-03T07:40:53.794Z,1003.59
2019-03-03T07:41:53.968Z,1003.58
2019-03-03T07:42:53.753Z,1003.65
2019-03-03T07:43:53.767Z,1003.65
2019-03-03T07:44:53.749Z,1003.57
2019-03-03T07:45:53.743Z,1003.63
2019-03-03T07:46:53.736Z,1003.59
2019-03-03T07:47:53.738Z,1003.62
2019-03-03T07:48:53.726Z,1003.66
2019-03-03T07:49:53.942Z,1003.65
2019-03-03T07:50:53.716Z,1003.62
2019-03-03T07:51:53.728Z,1003.67
2019-03-03T07:52:53.705Z,1003.64
2019-03-03T07:53:53.701Z,1003.68
2019-03-03T07:54:53.715Z,1003.60
2019-03-03T07:55:53.706Z,1003.63
2019-03-03T07:56:53.906Z,1003.62
2019-03-03T07:57:53.700Z,1003.64
2019-03-03T07:58:53.711Z,1003.65
2019-03-03T07:59:53.678Z,1003.64
2019-03-03T08:00:53.699Z,1003.66
2019-03-03T08:01:53.667Z,1003.62
2019-03-03T08:02:53.676Z,1003.65
2019-03-03T08:03:53.664Z,1003.70
2019-03-03T08:04:53.663Z,1003.68
2019-03-03T08:05:53.858Z,1003.69
2019-03-03T08:06:53.859Z,1003.67
2019-03-03T08:07:53.651Z,1003.69
2019-03-03T08:08:53.835Z,1003.67
2019-03-03T08:09:53.853Z,1003.68
2019-03-03T08:10:53.624Z,1003.61
2019-03-03T08:11:53.618Z,1003.63
2019-03-03T08:12:53.615Z,1003.66
2019-03-03T08:13:53.628Z,1003.66
2019-03-03T08:14:53.836Z,1003.67
2019-03-03T08:15:53.635Z,1003.65
2019-03-03T08:16:53.589Z,1003.72
2019-03-03T08:17:53.605Z,1003.67
2019-03-03T08:18:53.593Z,1003.68
2019-03-03T08:19:53.793Z,1003.67
2019-03-03T08:20:53.597Z,1003.67
2019-03-03T08:21:53.779Z,1003.71
2019-03-03T08:22:53.584Z,1003.69
2019-03-03T08:23:53.573Z,1003.65
2019-03-03T08:24:53.575Z,1003.64
2019-03-03T08:25:53.555Z,1003.68
2019-03-03T08:26:53.572Z,1003.65
2019-03-03T08:27:53.751Z,1003.67
2019-03-03T08:28:53.534Z,1003.67
2019-03-03T08:29:53.545Z,1003.71
2019-03-03T08:30:53.540Z,1003.66
2019-03-03T08:31:53.528Z,1003.69
2019-03-03T08:32:53.722Z,1003.71
2019-03-03T08:33:53.732Z,1003.67
2019-03-03T08:34:53.544Z,1003.64
2019-03-03T08:35:53.718Z,1003.58
2019-03-03T08:36:53.506Z,1003.66
2019-03-03T08:37:53.703Z,1003.59
2019-03-03T08:38:53.504Z,1003.60
2019-03-03T08:39:53.705Z,1003.61
2019-03-03T08:40:53.494Z,1003.63
2019-03-03T08:41:53.482Z,1003.59
2019-03-03T08:42:53.480Z,1003.63
2019-03-03T08:43:53.666Z,1003.64
2019-03-03T08:44:53.466Z,1003.69
2019-03-03T08:45:53.468Z,1003.68
2019-03-03T08:46:53.655Z,1003.62
2019-03-03T08:47:53.538Z,1003.60
2019-03-03T08:48:53.447Z,1003.65
2019-03-03T08:49:53.467Z,1003.63
2019-03-03T08:50:53.438Z,1003.65
2019-03-03T08:51:53.450Z,1003.60
2019-03-03T08:52:53.435Z,1003.61
2019-03-03T08:53:53.447Z,1003.61
2019-03-03T08:54:53.415Z,1003.59
2019-03-03T08:55:53.425Z,1003.62
2019-03-03T08:56:53.403Z,1003.66
2019-03-03T08:57:53.404Z,1003.64
2019-03-03T08:58:53.446Z,1003.63
2019-03-03T08:59:53.419Z,1003.66
2019-03-03T09:00:53.419Z,1003.62
2019-03-03T09:01:53.396Z,1003.59
2019-03-03T09:02:53.382Z,1003.56
2019-03-03T09:03:53.401Z,1003.67
2019-03-03T09:04:53.397Z,1003.61
2019-03-03T09:05:53.381Z,1003.61
2019-03-03T09:06:53.387Z,1003.60
2019-03-03T09:07:53.382Z,1003.62
2019-03-03T09:08:53.366Z,1003.60
2019-03-03T09:09:53.364Z,1003.64
2019-03-03T09:10:53.350Z,1003.63
2019-03-03T09:11:53.349Z,1003.65
2019-03-03T09:12:53.360Z,1003.62
2019-03-03T09:13:53.337Z,1003.64
2019-03-03T09:14:53.551Z,1003.64
2019-03-03T09:15:53.533Z,1003.63
2019-03-03T09:16:53.337Z,1003.62
2019-03-03T09:17:53.340Z,1003.63
2019-03-03T09:18:53.312Z,1003.66
2019-03-03T09:19:53.519Z,1003.64
2019-03-03T09:20:53.524Z,1003.66
2019-03-03T09:21:53.285Z,1003.66
2019-03-03T09:22:53.307Z,1003.63
2019-03-03T09:23:53.293Z,1003.63
2019-03-03T09:24:53.276Z,1003.64
2019-03-03T09:25:53.294Z,1003.62
2019-03-03T09:26:53.285Z,1003.55
2019-03-03T09:27:53.286Z,1003.63
2019-03-03T09:28:53.257Z,1003.51
2019-03-03T09:29:53.470Z,1003.58
2019-03-03T09:30:53.274Z,1003.64
2019-03-03T09:31:53.258Z,1003.59
2019-03-03T09:32:53.251Z,1003.58
2019-03-03T09:33:53.243Z,1003.59
2019-03-03T09:34:53.239Z,1003.57
2019-03-03T09:35:53.229Z,1003.54
2019-03-03T09:36:53.239Z,1003.51
2019-03-03T09:37:53.233Z,1003.54
2019-03-03T09:38:53.210Z,1003.55
2019-03-03T09:39:53.215Z,1003.59
2019-03-03T09:40:53.211Z,1003.47
2019-03-03T09:41:53.194Z,1003.57
2019-03-03T09:42:53.409Z,1003.38
2019-03-03T09:43:53.197Z,1003.39
2019-03-03T09:44:53.193Z,1003.48
2019-03-03T09:45:53.180Z,1003.41
2019-03-03T09:46:53.169Z,1003.42
2019-03-03T09:47:53.180Z,1003.50
2019-03-03T09:48:53.176Z,1003.39
2019-03-03T09:49:53.158Z,1003.44
2019-03-03T09:50:53.172Z,1003.43
2019-03-03T09:51:53.159Z,1003.48
2019-03-03T09:52:53.165Z,1003.50
2019-03-03T09:53:53.150Z,1003.61
2019-03-03T09:54:53.145Z,1003.45
2019-03-03T09:55:53.337Z,1003.50
2019-03-03T09:56:53.126Z,1003.44
2019-03-03T09:57:53.124Z,1003.46
2019-03-03T09:58:53.122Z,1003.50
2019-03-03T09:59:53.109Z,1003.52
2019-03-03T10:00:53.108Z,1003.50
2019-03-03T10:01:53.118Z,1003.46
2019-03-03T10:02:53.316Z,1003.50
2019-03-03T10:03:53.096Z,1003.60
2019-03-03T10:04:53.107Z,1003.56
2019-03-03T10:05:53.088Z,1003.54
2019-03-03T10:06:53.078Z,1003.35
2019-03-03T10:07:53.077Z,1003.42
2019-03-03T10:08:53.069Z,1003.45
2019-03-03T10:09:53.086Z,1003.55
2019-03-03T10:10:53.086Z,1003.57
2019-03-03T10:11:53.059Z,1003.52
2019-03-03T10:12:53.047Z,1003.44
2019-03-03T10:13:53.047Z,1003.48
2019-03-03T10:14:53.050Z,1003.47
2019-03-03T10:15:53.044Z,1003.43
2019-03-03T10:16:53.119Z,1003.56
2019-03-03T10:17:53.060Z,1003.52
2019-03-03T10:18:53.039Z,1003.52
2019-03-03T10:19:53.040Z,1003.55
2019-03-03T10:20:53.025Z,1003.53
2019-03-03T10:21:53.034Z,1003.46
2019-03-03T10:22:53.013Z,1003.49
2019-03-03T10:23:53.005Z,1003.41
2019-03-03T10:24:53.006Z,1003.46
2019-03-03T10:25:53.005Z,1003.42
2019-03-03T10:26:52.985Z,1003.39
2019-03-03T10:27:53.024Z,1003.45
2019-03-03T10:28:52.978Z,1003.51
2019-03-03T10:29:52.974Z,1003.48
2019-03-03T10:30:52.976Z,1003.50
2019-03-03T10:31:52.961Z,1003.46
2019-03-03T10:32:52.953Z,1003.47
2019-03-03T10:33:52.956Z,1003.41
2019-03-03T10:34:52.944Z,1003.33
2019-03-03T10:35:52.974Z,1003.35
2019-03-03T10:36:52.945Z,1003.44
2019-03-03T10:37:52.950Z,1003.40
2019-03-03T10:38:52.929Z,1003.40
2019-03-03T10:39:52.923Z,1003.38
2019-03-03T10:40:52.922Z,1003.37
2019-03-03T10:41:52.917Z,1003.37
2019-03-03T10:42:52.931Z,1003.34
2019-03-03T10:43:52.909Z,1003.40
2019-03-03T10:44:52.919Z,1003.34
2019-03-03T10:45:52.910Z,1003.36
2019-03-03T10:46:52.895Z,1003.28
2019-03-03T10:47:52.894Z,1003.33
2019-03-03T10:48:52.885Z,1003.31
2019-03-03T10:49:52.894Z,1003.38
2019-03-03T10:50:52.887Z,1003.36
2019-03-03T10:51:52.872Z,1003.35
2019-03-03T10:52:52.878Z,1003.35
2019-03-03T10:53:52.865Z,1003.35
2019-03-03T10:54:52.858Z,1003.32
2019-03-03T10:55:52.852Z,1003.31
2019-03-03T10:56:52.853Z,1003.25
2019-03-03T10:57:52.853Z,1003.30
2019-03-03T10:58:52.849Z,1003.28
2019-03-03T10:59:55.071Z,1003.27
2019-03-03T11:00:52.832Z,1003.25
2019-03-03T11:01:52.824Z,1003.30
2019-03-03T11:02:52.827Z,1003.25
2019-03-03T11:03:52.830Z,1003.23
2019-03-03T11:04:52.819Z,1003.28
2019-03-03T11:05:52.808Z,1003.28
2019-03-03T11:06:52.800Z,1003.24
2019-03-03T11:07:52.800Z,1003.27
2019-03-03T11:08:52.799Z,1003.26
2019-03-03T11:09:52.802Z,1003.26
2019-03-03T11:10:57.598Z,1003.22
2019-03-03T11:11:52.782Z,1003.28
2019-03-03T11:12:52.781Z,1003.30
2019-03-03T11:13:52.823Z,1003.33
2019-03-03T11:14:52.778Z,1003.27
2019-03-03T11:15:52.787Z,1003.31
2019-03-03T11:16:52.773Z,1003.30
2019-03-03T11:17:52.807Z,1003.30
2019-03-03T11:18:56.089Z,1003.27
2019-03-03T11:19:52.745Z,1003.28
2019-03-03T11:20:52.744Z,1003.28
2019-03-03T11:21:52.755Z,1003.27
2019-03-03T11:22:52.726Z,1003.33
2019-03-03T11:23:52.929Z,1003.27
2019-03-03T11:24:52.731Z,1003.27
2019-03-03T11:25:52.728Z,1003.18
2019-03-03T11:26:52.711Z,1003.23
2019-03-03T11:27:52.707Z,1003.19
2019-03-03T11:28:52.704Z,1003.16
2019-03-03T11:29:52.713Z,1003.21
2019-03-03T11:30:52.691Z,1003.20
2019-03-03T11:31:52.692Z,1003.15
2019-03-03T11:32:52.691Z,1003.18
2019-03-03T11:33:52.682Z,1003.12
2019-03-03T11:34:52.674Z,1003.15
2019-03-03T11:35:52.669Z,1003.10
2019-03-03T11:36:52.664Z,1003.09
2019-03-03T11:37:52.667Z,1003.12
2019-03-03T11:38:52.860Z,1003.12
2019-03-03T11:39:52.871Z,1003.10
2019-03-03T11:40:52.651Z,1003.10
2019-03-03T11:41:52.644Z,1003.08
2019-03-03T11:42:52.841Z,1003.05
2019-03-03T11:43:52.634Z,1003.01
2019-03-03T11:44:52.643Z,1003.09
2019-03-03T11:45:52.644Z,1003.06
2019-03-03T11:46:52.624Z,1002.98
2019-03-03T11:47:52.864Z,1003.02
2019-03-03T11:48:52.608Z,1002.89
2019-03-03T11:49:52.622Z,1002.98
2019-03-03T11:50:52.606Z,1002.96
2019-03-03T11:51:52.602Z,1002.98
2019-03-03T11:52:52.600Z,1002.93
2019-03-03T11:53:52.596Z,1002.85
2019-03-03T11:54:52.590Z,1002.89
2019-03-03T11:55:52.598Z,1002.88
2019-03-03T11:56:52.590Z,1002.90
2019-03-03T11:57:52.569Z,1002.82
2019-03-03T11:58:52.568Z,1002.86
2019-03-03T11:59:52.567Z,1002.85
2019-03-03T12:00:52.566Z,1002.83
2019-03-03T12:01:52.573Z,1002.83
2019-03-03T12:02:54.214Z,1002.75
2019-03-03T12:03:52.552Z,1002.77
2019-03-03T12:04:52.552Z,1002.75
2019-03-03T12:05:52.555Z,1002.78